createdAt,value
2018-04-29T00:01:29.564Z,99332.34
2018-04-29T00:05:32.043Z,99328.13
2018-04-29T00:09:34.535Z,99324.52
2018-04-29T00:13:37.016Z,99332.35
2018-04-29T00:17:39.504Z,99316.66
2018-04-29T00:21:41.962Z,99315.66
2018-04-29T00:25:44.440Z,99312.84
2018-04-29T00:29:46.895Z,99307.57
2018-04-29T00:33:49.396Z,99308.20
2018-04-29T00:37:51.858Z,99311.15
2018-04-29T00:41:54.375Z,99303.59
2018-04-29T00:45:56.836Z,99306.88
2018-04-29T00:49:59.328Z,99311.16
2018-04-29T00:54:01.828Z,99310.48
2018-04-29T00:58:04.338Z,99308.38
2018-04-29T01:02:06.819Z,99311.15
2018-04-29T01:06:09.310Z,99310.26
2018-04-29T01:10:11.798Z,99302.73
2018-04-29T01:14:14.254Z,99308.59
2018-04-29T01:18:16.738Z,99305.55
2018-04-29T01:22:19.214Z,99300.27
2018-04-29T01:26:21.712Z,99293.77
2018-04-29T01:30:24.204Z,99287.20
2018-04-29T01:34:26.692Z,99286.14
2018-04-29T01:38:29.176Z,99292.00
2018-04-29T01:42:31.672Z,99283.69
2018-04-29T01:46:34.155Z,99281.40
2018-04-29T01:50:36.607Z,99281.77
2018-04-29T01:54:39.090Z,99277.25
2018-04-29T01:58:41.576Z,99280.77
2018-04-29T02:02:44.066Z,99278.53
2018-04-29T02:06:46.550Z,99284.34
2018-04-29T02:10:49.031Z,99284.11
2018-04-29T02:14:51.520Z,99287.94
2018-04-29T02:18:53.999Z,99291.66
2018-04-29T02:22:56.467Z,99287.02
2018-04-29T02:26:58.927Z,99291.73
2018-04-29T02:31:01.454Z,99283.04
2018-04-29T02:35:03.950Z,99293.93
2018-04-29T02:39:06.455Z,99291.95
2018-04-29T02:43:08.910Z,99284.58
2018-04-29T02:47:11.399Z,99277.54
2018-04-29T02:51:13.886Z,99269.98
2018-04-29T02:55:16.347Z,99269.51
2018-04-29T02:59:18.848Z,99263.75
2018-04-29T03:03:21.313Z,99267.89
2018-04-29T03:07:23.795Z,99270.60
2018-04-29T03:11:26.259Z,99259.58
2018-04-29T03:15:28.745Z,99257.68
2018-04-29T03:19:31.217Z,99246.98
2018-04-29T03:23:33.713Z,99248.61
2018-04-29T03:27:36.216Z,99242.39
2018-04-29T03:31:38.695Z,99242.86
2018-04-29T03:35:41.191Z,99243.81
2018-04-29T03:39:43.657Z,99252.83
2018-04-29T03:43:46.149Z,99251.98
2018-04-29T03:47:48.605Z,99255.73
2018-04-29T03:51:51.090Z,99251.92
2018-04-29T03:55:53.640Z,99249.53
2018-04-29T04:00:07.956Z,99254.22
2018-04-29T04:04:10.441Z,99257.07
2018-04-29T04:08:12.925Z,99262.70
2018-04-29T04:12:15.420Z,99267.25
2018-04-29T04:16:17.901Z,99259.87
2018-04-29T04:20:20.397Z,99261.76
2018-04-29T04:24:22.888Z,99270.59
2018-04-29T04:28:25.375Z,99275.40
2018-04-29T04:32:27.874Z,99288.78
2018-04-29T04:36:30.359Z,99281.95
2018-04-29T04:40:32.848Z,99279.72
2018-04-29T04:44:35.337Z,99291.22
2018-04-29T04:48:37.797Z,99291.14
2018-04-29T04:52:40.278Z,99294.05
2018-04-29T04:56:42.776Z,99294.78
2018-04-29T05:00:45.271Z,99295.47
2018-04-29T05:04:47.757Z,99297.48
2018-04-29T05:08:50.217Z,99299.41
2018-04-29T05:12:52.707Z,99307.08
2018-04-29T05:16:55.208Z,99309.38
2018-04-29T05:20:57.724Z,99315.06
2018-04-29T05:25:00.206Z,99303.03
2018-04-29T05:29:02.693Z,99311.20
2018-04-29T05:33:05.178Z,99309.20
2018-04-29T05:37:07.669Z,99311.02
2018-04-29T05:41:10.166Z,99309.64
2018-04-29T05:45:12.635Z,99298.67
2018-04-29T05:49:15.116Z,99304.48
2018-04-29T05:53:17.595Z,99305.87
2018-04-29T05:57:20.084Z,99306.81
2018-04-29T06:01:22.576Z,99294.66
2018-04-29T06:05:25.032Z,99285.37
2018-04-29T06:09:27.517Z,99284.23
2018-04-29T06:13:29.979Z,99287.14
2018-04-29T06:17:32.501Z,99278.09
2018-04-29T06:21:35.092Z,99283.16
2018-04-29T06:25:38.434Z,99291.33
2018-04-29T06:29:40.936Z,99289.83
2018-04-29T06:33:43.403Z,99295.34
2018-04-29T06:37:45.891Z,99304.46
2018-04-29T06:41:48.495Z,99295.05
2018-04-29T06:45:50.979Z,99300.21
2018-04-29T06:49:53.442Z,99292.63
2018-04-29T06:53:55.922Z,99293.13
2018-04-29T06:57:58.428Z,99289.83
2018-04-29T07:02:00.891Z,99290.84
2018-04-29T07:06:03.378Z,99289.66
2018-04-29T07:10:05.855Z,99292.15
2018-04-29T07:14:08.335Z,99289.55
2018-04-29T07:18:10.807Z,99289.95
2018-04-29T07:22:13.289Z,99287.75
2018-04-29T07:26:15.789Z,99290.03
2018-04-29T07:30:18.293Z,99288.24
2018-04-29T07:34:20.758Z,99292.16
2018-04-29T07:38:23.253Z,99282.30
2018-04-29T07:42:25.739Z,99284.08
2018-04-29T07:46:28.573Z,99288.50
2018-04-29T07:50:30.970Z,99290.93
2018-04-29T07:54:33.450Z,99287.13
2018-04-29T07:58:35.928Z,99286.22
2018-04-29T08:02:38.378Z,99280.91
2018-04-29T08:06:40.914Z,99282.19
2018-04-29T08:10:43.353Z,99298.83
2018-04-29T08:14:45.859Z,99288.69
2018-04-29T08:18:48.319Z,99293.80
2018-04-29T08:22:50.819Z,99297.38
2018-04-29T08:26:53.286Z,99291.12
2018-04-29T08:30:55.759Z,99298.16
2018-04-29T08:34:58.270Z,99292.28
2018-04-29T08:39:00.728Z,99284.95
2018-04-29T08:43:03.221Z,99285.86
2018-04-29T08:47:05.684Z,99292.09
2018-04-29T08:51:08.172Z,99286.66
2018-04-29T08:55:10.649Z,99292.84
2018-04-29T08:59:13.142Z,99281.84
2018-04-29T09:03:15.620Z,99280.52
2018-04-29T09:07:18.096Z,99283.98
2018-04-29T09:11:20.575Z,99269.45
2018-04-29T09:15:23.086Z,99271.59
2018-04-29T09:19:25.546Z,99265.89
2018-04-29T09:23:28.027Z,99258.48
2018-04-29T09:27:30.493Z,99263.20
2018-04-29T09:31:32.980Z,99253.94
2018-04-29T09:35:35.438Z,99256.31
2018-04-29T09:39:37.919Z,99254.30
2018-04-29T09:43:40.416Z,99253.16
2018-04-29T09:47:42.864Z,99250.10
2018-04-29T09:51:45.356Z,99247.86
2018-04-29T09:55:47.830Z,99244.90
2018-04-29T09:59:50.322Z,99240.43
2018-04-29T10:03:52.804Z,99233.09
2018-04-29T10:07:55.300Z,99228.08
2018-04-29T10:11:57.776Z,99233.34
2018-04-29T10:16:00.263Z,99225.61
2018-04-29T10:20:02.761Z,99219.77
2018-04-29T10:24:05.217Z,99215.00
2018-04-29T10:28:07.704Z,99207.41
2018-04-29T10:32:10.200Z,99199.84
2018-04-29T10:36:12.698Z,99198.97
2018-04-29T10:40:15.206Z,99195.27
2018-04-29T10:44:17.651Z,99189.76
2018-04-29T10:48:20.144Z,99181.79
2018-04-29T10:52:22.641Z,99179.99
2018-04-29T10:56:25.106Z,99172.05
2018-04-29T11:00:27.591Z,99173.88
2018-04-29T11:04:30.052Z,99168.38
2018-04-29T11:08:32.543Z,99163.32
2018-04-29T11:12:35.037Z,99147.52
2018-04-29T11:16:37.559Z,99142.14
2018-04-29T11:20:39.986Z,99138.05
2018-04-29T11:24:42.471Z,99138.56
2018-04-29T11:28:44.946Z,99131.24
2018-04-29T11:32:47.429Z,99123.87
2018-04-29T11:36:49.997Z,99123.70
2018-04-29T11:40:52.452Z,99119.20
2018-04-29T11:44:54.927Z,99125.88
2018-04-29T11:48:57.388Z,99109.05
2018-04-29T11:52:59.868Z,99105.44
2018-04-29T11:57:02.363Z,99101.06
2018-04-29T12:01:04.821Z,99095.52
2018-04-29T12:05:07.308Z,99090.02
2018-04-29T12:09:09.765Z,99089.80
2018-04-29T12:13:12.254Z,99088.93
2018-04-29T12:17:14.736Z,99084.83
2018-04-29T12:21:17.195Z,99081.00
2018-04-29T12:25:19.688Z,99079.66
2018-04-29T12:29:22.193Z,99079.82
2018-04-29T12:33:24.657Z,99066.96
2018-04-29T12:37:27.141Z,99071.17
2018-04-29T12:41:29.643Z,99065.29
2018-04-29T12:45:32.182Z,99060.02
2018-04-29T12:49:34.656Z,99047.19
2018-04-29T12:53:37.143Z,99051.75
2018-04-29T12:57:39.622Z,99042.09
2018-04-29T13:01:42.108Z,99026.85
2018-04-29T13:05:44.640Z,99022.44
2018-04-29T13:09:47.080Z,99029.22
2018-04-29T13:13:49.623Z,99026.09
2018-04-29T13:17:52.133Z,99021.45
2018-04-29T13:21:54.622Z,99018.50
2018-04-29T13:25:57.088Z,98998.05
2018-04-29T13:29:59.585Z,98996.00
2018-04-29T13:34:02.080Z,98996.36
2018-04-29T13:38:04.545Z,98986.80
2018-04-29T13:42:07.106Z,98979.44
2018-04-29T13:46:09.508Z,98974.92
2018-04-29T13:50:12.209Z,98964.27
2018-04-29T13:54:14.703Z,98967.41
2018-04-29T13:58:17.160Z,98968.56
2018-04-29T14:02:19.646Z,98959.27
2018-04-29T14:06:22.127Z,98958.48
2018-04-29T14:10:24.663Z,98956.28
2018-04-29T14:14:27.074Z,98944.44
2018-04-29T14:18:29.557Z,98942.97
2018-04-29T14:22:32.040Z,98937.66
2018-04-29T14:26:34.519Z,98937.52
2018-04-29T14:30:37.012Z,98930.30
2018-04-29T14:34:39.519Z,98928.06
2018-04-29T14:38:41.982Z,98923.14
2018-04-29T14:42:44.463Z,98921.86
2018-04-29T14:46:46.950Z,98917.84
2018-04-29T14:50:49.450Z,98907.25
2018-04-29T14:54:51.911Z,98916.77
2018-04-29T14:58:54.390Z,98918.11
2018-04-29T15:02:56.881Z,98912.95
2018-04-29T15:06:59.371Z,98914.03
2018-04-29T15:11:01.830Z,98909.80
2018-04-29T15:15:04.321Z,98904.65
2018-04-29T15:19:06.787Z,98906.45
2018-04-29T15:23:09.269Z,98904.12
2018-04-29T15:27:11.752Z,98902.53
2018-04-29T15:31:14.242Z,98899.92
2018-04-29T15:35:16.723Z,98901.69
2018-04-29T15:39:19.190Z,98894.41
2018-04-29T15:43:21.730Z,98891.75
2018-04-29T15:47:24.205Z,98879.28
2018-04-29T15:51:26.667Z,98881.77
2018-04-29T15:55:29.143Z,98876.40
2018-04-29T15:59:31.626Z,98873.42
2018-04-29T16:03:34.136Z,98866.91
2018-04-29T16:07:36.582Z,98866.16
2018-04-29T16:11:39.090Z,98868.47
2018-04-29T16:15:41.572Z,98872.20
2018-04-29T16:19:44.040Z,98872.43
2018-04-29T16:23:46.584Z,98867.56
2018-04-29T16:27:49.049Z,98862.80
2018-04-29T16:31:51.547Z,98867.03
2018-04-29T16:35:54.048Z,98868.97
2018-04-29T16:39:56.532Z,98869.56
2018-04-29T16:43:59.020Z,98865.27
2018-04-29T16:48:01.512Z,98868.08
2018-04-29T16:52:04.001Z,98869.94
2018-04-29T16:56:06.481Z,98876.79
2018-04-29T17:00:08.955Z,98866.13
2018-04-29T17:04:11.445Z,98872.73
2018-04-29T17:08:13.909Z,98871.03
2018-04-29T17:12:16.391Z,98876.67
2018-04-29T17:16:18.878Z,98876.02
2018-04-29T17:20:21.380Z,98875.24
2018-04-29T17:24:23.842Z,98876.44
2018-04-29T17:28:26.323Z,98879.33
2018-04-29T17:32:28.790Z,98882.59
2018-04-29T17:36:31.291Z,98893.73
2018-04-29T17:40:33.745Z,98898.27
2018-04-29T17:44:36.232Z,98891.41
2018-04-29T17:48:38.706Z,98888.45
2018-04-29T17:52:41.203Z,98893.55
2018-04-29T17:56:43.689Z,98896.37
2018-04-29T18:00:46.179Z,98895.22
2018-04-29T18:04:48.652Z,98900.85
2018-04-29T18:08:51.130Z,98906.59
2018-04-29T18:12:53.624Z,98907.59
2018-04-29T18:16:56.076Z,98910.91
2018-04-29T18:20:58.552Z,98901.72
2018-04-29T18:25:01.037Z,98907.61
2018-04-29T18:29:03.493Z,98913.21
2018-04-29T18:33:05.979Z,98913.88
2018-04-29T18:37:08.442Z,98923.07
2018-04-29T18:41:10.926Z,98929.97
2018-04-29T18:45:13.416Z,98923.36
2018-04-29T18:49:15.973Z,98935.19
2018-04-29T18:53:18.461Z,98936.73
2018-04-29T18:57:20.923Z,98936.52
2018-04-29T19:01:23.411Z,98947.38
2018-04-29T19:05:37.532Z,98936.22
2018-04-29T19:09:40.010Z,98939.38
2018-04-29T19:13:42.497Z,98939.65
2018-04-29T19:17:44.981Z,98946.06
2018-04-29T19:21:47.467Z,98948.13
2018-04-29T19:25:49.947Z,98953.16
2018-04-29T19:29:52.434Z,98954.02
2018-04-29T19:33:54.921Z,98954.01
2018-04-29T19:37:57.407Z,98953.96
2018-04-29T19:41:59.869Z,98949.48
2018-04-29T19:46:02.360Z,98948.18
2018-04-29T19:50:04.821Z,98943.27
2018-04-29T19:54:07.302Z,98936.91
2018-04-29T19:58:09.775Z,98949.16
2018-04-29T20:02:12.262Z,98936.98
2018-04-29T20:06:14.719Z,98944.84
2018-04-29T20:10:17.205Z,98938.05
2018-04-29T20:14:19.665Z,98927.33
2018-04-29T20:18:22.150Z,98928.81
2018-04-29T20:22:24.652Z,98936.32
2018-04-29T20:26:27.135Z,98929.44
2018-04-29T20:30:29.628Z,98930.71
2018-04-29T20:34:32.094Z,98928.41
2018-04-29T20:38:34.569Z,98924.25
2018-04-29T20:42:37.047Z,98920.97
2018-04-29T20:46:39.511Z,98920.53
2018-04-29T20:50:41.988Z,98916.06
2018-04-29T20:54:44.469Z,98911.73
2018-04-29T20:58:46.922Z,98903.97
2018-04-29T21:02:49.404Z,98900.35
2018-04-29T21:06:51.859Z,98902.41
2018-04-29T21:10:54.348Z,98893.98
2018-04-29T21:14:56.827Z,98900.80
2018-04-29T21:18:59.333Z,98896.98
2018-04-29T21:23:01.790Z,98901.73
2018-04-29T21:27:04.271Z,98902.31
2018-04-29T21:31:06.748Z,98909.65
2018-04-29T21:35:09.215Z,98895.80
2018-04-29T21:39:11.694Z,98893.30
2018-04-29T21:43:14.163Z,98888.60
2018-04-29T21:47:16.641Z,98888.00
2018-04-29T21:51:19.087Z,98890.81
2018-04-29T21:55:21.576Z,98882.06
2018-04-29T21:59:24.036Z,98881.85
2018-04-29T22:03:26.514Z,98877.41
2018-04-29T22:07:29.003Z,98880.50
2018-04-29T22:11:31.494Z,98881.27
2018-04-29T22:15:33.973Z,98878.52
2018-04-29T22:19:36.457Z,98886.40
2018-04-29T22:23:38.949Z,98888.87
2018-04-29T22:27:41.408Z,98885.00
2018-04-29T22:31:43.879Z,98886.92
2018-04-29T22:35:46.367Z,98879.97
2018-04-29T22:39:48.818Z,98878.92
2018-04-29T22:43:51.312Z,98870.39
2018-04-29T22:47:53.795Z,98872.73
2018-04-29T22:51:56.282Z,98872.06
2018-04-29T22:55:58.750Z,98869.16
2018-04-29T23:00:01.224Z,98852.97
2018-04-29T23:04:03.762Z,98847.53
2018-04-29T23:08:06.209Z,98850.19
2018-04-29T23:12:08.658Z,98838.81
2018-04-29T23:16:11.139Z,98834.11
2018-04-29T23:20:13.623Z,98836.97
2018-04-29T23:24:16.105Z,98832.09
2018-04-29T23:28:18.592Z,98831.36
2018-04-29T23:32:21.071Z,98826.87
2018-04-29T23:36:23.555Z,98825.97
2018-04-29T23:40:26.011Z,98828.36
2018-04-29T23:44:28.500Z,98817.88
2018-04-29T23:48:30.982Z,98813.56
2018-04-29T23:52:33.479Z,98799.83
2018-04-29T23:56:35.946Z,98793.77
